createdAt,value
2023-09-08T00:01:25.870Z,8.00
2023-09-08T00:03:53.652Z,6.50
2023-09-08T00:06:21.335Z,8.20
2023-09-08T00:08:48.949Z,6.50
2023-09-08T00:11:16.526Z,9.75
2023-09-08T00:13:44.126Z,9.75
2023-09-08T00:16:12.464Z,7.00
2023-09-08T00:18:40.133Z,6.00
2023-09-08T00:21:07.760Z,9.00
2023-09-08T00:23:35.339Z,6.00
2023-09-08T00:26:03.014Z,4.00
2023-09-08T00:28:30.625Z,10.50
2023-09-08T00:30:58.823Z,8.00
2023-09-08T00:33:26.445Z,6.00
2023-09-08T00:35:54.603Z,4.00
2023-09-08T00:38:22.181Z,9.25
2023-09-08T00:40:50.247Z,9.00
2023-09-08T00:43:17.923Z,9.25
2023-09-08T00:45:45.570Z,6.00
2023-09-08T00:48:13.354Z,8.00
2023-09-08T00:50:41.254Z,9.75
2023-09-08T00:53:08.874Z,12.00
2023-09-08T00:55:37.553Z,5.00
2023-09-08T00:58:05.097Z,7.25
2023-09-08T01:00:33.124Z,6.00
2023-09-08T01:03:01.329Z,7.50
2023-09-08T01:05:29.110Z,10.00
2023-09-08T01:07:57.477Z,6.00
2023-09-08T01:10:25.086Z,9.50
2023-09-08T01:12:52.811Z,9.00
2023-09-08T01:15:20.553Z,9.00
2023-09-08T01:17:48.464Z,10.00
2023-09-08T01:20:16.642Z,8.00
2023-09-08T01:22:44.243Z,10.50
2023-09-08T01:25:12.264Z,10.00
2023-09-08T01:27:39.996Z,9.50
2023-09-08T01:30:07.574Z,8.50
2023-09-08T01:32:35.146Z,9.00
2023-09-08T01:35:02.701Z,10.50
2023-09-08T01:37:30.281Z,9.75
2023-09-08T01:39:57.832Z,9.50
2023-09-08T01:42:25.415Z,9.00
2023-09-08T01:44:52.981Z,9.67
2023-09-08T01:47:20.512Z,6.75
2023-09-08T01:49:48.053Z,8.00
2023-09-08T01:52:15.582Z,9.00
2023-09-08T01:54:43.144Z,9.00
2023-09-08T01:57:10.886Z,9.00
2023-09-08T01:59:39.091Z,7.00
2023-09-08T02:02:06.656Z,9.75
2023-09-08T02:04:34.607Z,10.00
2023-09-08T02:07:02.863Z,10.00
2023-09-08T02:09:30.615Z,8.50
2023-09-08T02:11:58.202Z,4.00
2023-09-08T02:14:25.852Z,9.25
2023-09-08T02:16:53.406Z,9.00
2023-09-08T02:19:21.059Z,9.00
2023-09-08T02:21:48.631Z,8.33
2023-09-08T02:24:16.143Z,9.00
2023-09-08T02:26:43.771Z,7.00
2023-09-08T02:29:12.265Z,9.00
2023-09-08T02:31:39.785Z,9.00
2023-09-08T02:34:07.341Z,7.00
2023-09-08T02:36:34.904Z,9.00
2023-09-08T02:39:02.445Z,7.00
2023-09-08T02:41:29.991Z,6.75
2023-09-08T02:43:57.617Z,8.50
2023-09-08T02:46:25.857Z,7.00
2023-09-08T02:48:53.941Z,6.00
2023-09-08T02:51:21.942Z,7.50
2023-09-08T02:53:49.503Z,6.50
2023-09-08T02:56:17.086Z,8.50
2023-09-08T02:58:45.453Z,6.00
2023-09-08T03:01:14.661Z,9.00
2023-09-08T03:03:42.430Z,11.00
2023-09-08T03:06:10.031Z,9.75
2023-09-08T03:08:38.195Z,7.00
2023-09-08T03:11:05.852Z,8.00
2023-09-08T03:13:35.228Z,10.00
2023-09-08T03:16:02.858Z,9.50
2023-09-08T03:18:30.551Z,10.00
2023-09-08T03:20:58.113Z,10.00
2023-09-08T03:23:25.680Z,11.50
2023-09-08T03:25:53.260Z,6.25
2023-09-08T03:28:20.812Z,7.00
2023-09-08T03:30:48.358Z,4.50
2023-09-08T03:33:16.152Z,9.50
2023-09-08T03:35:45.615Z,4.50
2023-09-08T03:38:13.162Z,8.50
2023-09-08T03:40:40.720Z,9.25
2023-09-08T03:43:08.249Z,11.00
2023-09-08T03:45:35.940Z,9.75
2023-09-08T03:48:03.559Z,10.00
2023-09-08T03:50:31.104Z,12.00
2023-09-08T03:52:58.670Z,10.00
2023-09-08T03:55:26.268Z,10.00
2023-09-08T03:57:54.655Z,3.00
2023-09-08T04:00:23.654Z,8.00
2023-09-08T04:02:51.407Z,7.00
2023-09-08T04:05:19.116Z,6.00
2023-09-08T04:07:46.842Z,9.75
2023-09-08T04:10:14.806Z,8.00
2023-09-08T04:12:42.435Z,8.00
2023-09-08T04:15:10.110Z,8.50
2023-09-08T04:17:38.470Z,9.75
2023-09-08T04:20:06.980Z,9.00
2023-09-08T04:22:34.555Z,7.00
2023-09-08T04:25:02.142Z,8.50
2023-09-08T04:27:29.702Z,7.00
2023-09-08T04:29:57.315Z,7.50
2023-09-08T04:32:24.922Z,7.50
2023-09-08T04:34:52.511Z,6.50
2023-09-08T04:37:20.098Z,4.00
2023-09-08T04:39:47.660Z,6.50
2023-09-08T04:42:15.598Z,5.00
2023-09-08T04:44:43.138Z,6.50
2023-09-08T04:47:10.780Z,8.50
2023-09-08T04:49:39.582Z,8.00
2023-09-08T04:52:07.103Z,10.00
2023-09-08T04:54:34.736Z,6.25
2023-09-08T04:57:16.037Z,5.00
2023-09-08T04:59:48.447Z,8.50
2023-09-08T05:02:16.637Z,9.00
2023-09-08T05:04:44.300Z,10.00
2023-09-08T05:07:13.735Z,10.00
2023-09-08T05:09:41.341Z,9.00
2023-09-08T05:12:08.972Z,12.00
2023-09-08T05:14:36.666Z,12.00
2023-09-08T05:17:04.284Z,9.50
2023-09-08T05:19:31.798Z,13.00
2023-09-08T05:21:59.410Z,7.50
2023-09-08T05:24:28.331Z,9.25
2023-09-08T05:26:56.125Z,6.25
2023-09-08T05:29:23.814Z,6.00
2023-09-08T05:31:51.379Z,10.00
2023-09-08T05:34:19.011Z,7.50
2023-09-08T05:36:46.764Z,9.00
2023-09-08T05:39:14.821Z,10.00
2023-09-08T05:41:42.386Z,7.00
2023-09-08T05:44:10.079Z,11.00
2023-09-08T05:46:37.827Z,9.25
2023-09-08T05:49:05.551Z,7.00
2023-09-08T05:51:33.225Z,7.50
2023-09-08T05:54:00.821Z,8.00
2023-09-08T05:56:28.416Z,7.00
2023-09-08T05:58:56.012Z,7.00
2023-09-08T06:01:23.956Z,12.75
2023-09-08T06:03:51.775Z,10.00
2023-09-08T06:06:19.956Z,9.75
2023-09-08T06:08:47.508Z,10.00
2023-09-08T06:11:15.164Z,8.00
2023-09-08T06:13:43.629Z,10.00
2023-09-08T06:16:11.400Z,10.00
2023-09-08T06:18:41.538Z,6.50
2023-09-08T06:21:09.474Z,9.00
2023-09-08T06:23:38.096Z,6.00
2023-09-08T06:26:06.354Z,12.50
2023-09-08T06:28:34.677Z,10.00
2023-09-08T06:31:02.743Z,10.00
2023-09-08T06:33:30.579Z,11.50
2023-09-08T06:35:58.464Z,10.00
2023-09-08T06:38:26.846Z,10.00
2023-09-08T06:40:55.155Z,12.75
2023-09-08T06:43:22.869Z,10.00
2023-09-08T06:45:51.209Z,6.25
2023-09-08T06:48:18.912Z,10.00
2023-09-08T06:50:47.187Z,3.00
2023-09-08T06:53:15.049Z,12.50
2023-09-08T06:55:45.567Z,12.75
2023-09-08T06:58:16.095Z,11.00
2023-09-08T07:00:43.875Z,12.00
2023-09-08T07:03:11.905Z,10.00
2023-09-08T07:05:39.801Z,10.00
2023-09-08T07:08:07.835Z,10.00
2023-09-08T07:10:35.589Z,12.00
2023-09-08T07:13:03.723Z,13.00
2023-09-08T07:15:32.226Z,11.80
2023-09-08T07:18:00.050Z,11.40
2023-09-08T07:20:27.800Z,12.00
2023-09-08T07:22:55.916Z,10.00
2023-09-08T07:25:23.599Z,12.40
2023-09-08T07:27:54.004Z,13.40
2023-09-08T07:30:21.625Z,13.00
2023-09-08T07:32:49.371Z,11.80
2023-09-08T07:35:18.330Z,13.00
2023-09-08T07:37:46.102Z,10.00
2023-09-08T07:40:14.195Z,13.20
2023-09-08T07:42:42.086Z,12.60
2023-09-08T07:45:10.974Z,11.00
2023-09-08T07:47:39.687Z,10.40
2023-09-08T07:50:07.667Z,10.00
2023-09-08T07:52:35.751Z,9.20
2023-09-08T07:55:04.819Z,8.40
2023-09-08T07:57:32.988Z,9.40
2023-09-08T08:00:00.630Z,10.60
2023-09-08T08:02:28.390Z,7.00
2023-09-08T08:04:56.232Z,9.00
2023-09-08T08:07:23.974Z,2.80
2023-09-08T08:09:51.657Z,7.20
2023-09-08T08:12:19.590Z,6.80
2023-09-08T08:14:47.349Z,8.40
2023-09-08T08:17:15.167Z,8.80
2023-09-08T08:19:42.928Z,7.60
2023-09-08T08:22:10.790Z,6.40
2023-09-08T08:24:38.754Z,9.20
2023-09-08T08:27:06.500Z,7.00
2023-09-08T08:29:34.475Z,9.20
2023-09-08T08:32:02.164Z,8.00
2023-09-08T08:34:29.868Z,6.60
2023-09-08T08:36:57.553Z,7.20
2023-09-08T08:39:25.258Z,8.00
2023-09-08T08:41:53.542Z,9.00
2023-09-08T08:44:21.248Z,8.20
2023-09-08T08:46:49.054Z,7.00
2023-09-08T08:49:16.938Z,6.00
2023-09-08T08:51:44.751Z,9.60
2023-09-08T08:54:12.433Z,9.60
2023-09-08T08:56:40.295Z,8.40
2023-09-08T08:59:08.024Z,9.00
2023-09-08T09:01:35.671Z,7.80
2023-09-08T09:04:03.793Z,7.60
2023-09-08T09:06:31.585Z,7.40
2023-09-08T09:08:59.711Z,7.00
2023-09-08T09:11:27.417Z,7.80
2023-09-08T09:13:55.191Z,8.00
2023-09-08T09:16:22.887Z,8.80
2023-09-08T09:18:51.337Z,7.00
2023-09-08T09:21:19.015Z,8.00
2023-09-08T09:23:46.730Z,8.00
2023-09-08T09:26:15.264Z,3.00
2023-09-08T09:28:43.136Z,8.00
2023-09-08T09:31:12.463Z,8.60
2023-09-08T09:33:40.459Z,8.00
2023-09-08T09:36:08.555Z,7.40
2023-09-08T09:38:36.720Z,7.00
2023-09-08T09:41:04.814Z,8.00
2023-09-08T09:43:32.669Z,7.60
2023-09-08T09:46:00.358Z,6.00
2023-09-08T09:48:28.358Z,7.00
2023-09-08T09:50:56.019Z,7.00
2023-09-08T09:53:23.717Z,7.60
2023-09-08T09:55:52.092Z,9.00
2023-09-08T09:58:19.847Z,8.00
2023-09-08T10:00:49.659Z,8.00
2023-09-08T10:03:17.876Z,7.60
2023-09-08T10:05:48.168Z,9.60
2023-09-08T10:08:15.913Z,7.80
2023-09-08T10:10:47.331Z,5.60
2023-09-08T10:13:15.193Z,7.40
2023-09-08T10:15:42.921Z,6.60
2023-09-08T10:18:10.860Z,8.00
2023-09-08T10:20:38.878Z,7.80
2023-09-08T10:26:15.482Z,7.60
2023-09-08T10:28:43.195Z,8.00
2023-09-08T10:31:12.824Z,8.80
2023-09-08T10:33:42.229Z,6.80
2023-09-08T10:36:10.031Z,9.00
2023-09-08T10:38:38.111Z,7.20
2023-09-08T10:41:06.180Z,6.20
2023-09-08T10:43:35.604Z,8.80
2023-09-08T10:46:03.904Z,8.00
2023-09-08T10:48:31.898Z,8.00
2023-09-08T10:51:00.276Z,7.80
2023-09-08T10:53:28.075Z,7.00
2023-09-08T10:58:28.205Z,7.60
2023-09-08T11:01:00.574Z,7.20
2023-09-08T11:03:29.022Z,8.00
2023-09-08T11:05:57.559Z,7.40
2023-09-08T11:08:27.214Z,7.20
2023-09-08T11:10:56.674Z,8.00
2023-09-08T11:13:24.300Z,8.00
2023-09-08T11:15:52.128Z,5.60
2023-09-08T11:18:21.005Z,8.00
2023-09-08T11:20:48.859Z,5.20
2023-09-08T11:23:16.733Z,6.00
2023-09-08T11:25:44.463Z,8.00
2023-09-08T11:28:12.169Z,7.20
2023-09-08T11:30:40.010Z,7.20
2023-09-08T11:33:08.906Z,7.00
2023-09-08T11:35:36.751Z,4.80
2023-09-08T11:38:06.087Z,7.20
2023-09-08T11:40:34.030Z,7.00
2023-09-08T11:43:02.472Z,7.00
2023-09-08T11:45:30.632Z,5.40
2023-09-08T11:47:58.356Z,6.00
2023-09-08T11:50:26.235Z,3.00
2023-09-08T11:52:53.925Z,6.00
2023-09-08T11:55:23.846Z,6.00
2023-09-08T11:57:52.418Z,4.00
2023-09-08T12:00:21.093Z,6.20
2023-09-08T12:02:49.020Z,6.80
2023-09-08T12:05:17.023Z,6.20
2023-09-08T12:07:44.774Z,4.60
2023-09-08T12:10:13.240Z,6.20
2023-09-08T12:12:42.010Z,5.00
2023-09-08T12:15:09.801Z,5.00
2023-09-08T12:17:37.681Z,6.00
2023-09-08T12:20:05.628Z,6.00
2023-09-08T12:22:33.667Z,5.80
2023-09-08T12:25:03.259Z,5.60
2023-09-08T12:27:33.115Z,4.60
2023-09-08T12:30:01.669Z,4.80
2023-09-08T12:32:29.540Z,6.00
2023-09-08T12:34:57.282Z,4.00
2023-09-08T12:37:26.520Z,7.00
2023-09-08T12:39:54.776Z,5.00
2023-09-08T12:42:22.491Z,5.40
2023-09-08T12:44:51.305Z,4.00
2023-09-08T12:47:19.272Z,5.00
2023-09-08T12:49:47.182Z,6.00
2023-09-08T12:52:15.398Z,5.20
2023-09-08T12:54:43.104Z,5.20
2023-09-08T12:57:15.420Z,6.40
2023-09-08T12:59:43.408Z,6.80
2023-09-08T13:02:15.107Z,5.20
2023-09-08T13:04:42.951Z,7.00
2023-09-08T13:07:11.024Z,6.60
2023-09-08T13:09:39.068Z,5.00
2023-09-08T13:12:06.939Z,5.40
2023-09-08T13:14:34.820Z,7.00
2023-09-08T13:17:02.668Z,7.60
2023-09-08T13:19:30.681Z,7.80
2023-09-08T13:21:58.566Z,6.40
2023-09-08T13:24:26.800Z,6.60
2023-09-08T13:26:54.604Z,7.20
2023-09-08T13:29:22.566Z,7.20
2023-09-08T13:31:50.501Z,6.40
2023-09-08T13:34:18.782Z,8.40
2023-09-08T13:36:47.010Z,7.40
2023-09-08T13:39:14.925Z,5.40
2023-09-08T13:41:42.740Z,5.40
2023-09-08T13:44:10.573Z,7.60
2023-09-08T13:46:38.473Z,7.80
2023-09-08T13:49:07.266Z,8.00
2023-09-08T13:51:35.731Z,7.80
2023-09-08T13:54:08.037Z,7.00
2023-09-08T13:56:36.498Z,7.00
2023-09-08T13:59:05.095Z,6.80
2023-09-08T14:01:34.941Z,8.00
2023-09-08T14:04:04.235Z,8.00
2023-09-08T14:06:41.113Z,8.00
2023-09-08T14:14:29.290Z,8.00
2023-09-08T14:16:59.098Z,6.80
2023-09-08T14:19:26.914Z,7.00
2023-09-08T14:21:54.834Z,6.60
2023-09-08T14:24:22.777Z,7.40
2023-09-08T14:26:52.348Z,5.80
2023-09-08T14:29:20.293Z,5.60
2023-09-08T14:31:48.145Z,7.00
2023-09-08T14:34:16.214Z,7.00
2023-09-08T14:36:45.572Z,8.20
2023-09-08T14:39:16.296Z,5.00
2023-09-08T14:41:43.999Z,8.00
2023-09-08T14:44:11.904Z,8.00
2023-09-08T14:46:39.862Z,6.80
2023-09-08T14:49:07.666Z,8.00
2023-09-08T14:51:35.565Z,6.00
2023-09-08T14:54:03.321Z,5.00
2023-09-08T14:56:31.166Z,7.00
2023-09-08T14:58:59.104Z,5.40
2023-09-08T15:01:26.865Z,6.80
2023-09-08T15:03:56.361Z,7.00
2023-09-08T15:06:25.994Z,6.60
2023-09-08T15:08:56.035Z,0.00
2023-09-08T15:11:24.177Z,7.00
2023-09-08T15:13:52.117Z,8.00
2023-09-08T15:16:19.992Z,6.00
2023-09-08T15:18:47.809Z,6.00
2023-09-08T15:21:16.474Z,6.40
2023-09-08T15:23:45.460Z,6.80
2023-09-08T15:26:13.333Z,4.40
2023-09-08T15:28:41.270Z,6.00
2023-09-08T15:31:09.267Z,5.00
2023-09-08T15:33:39.177Z,6.00
2023-09-08T15:36:07.627Z,7.00
2023-09-08T15:38:35.473Z,7.20
2023-09-08T15:41:03.339Z,5.60
2023-09-08T15:43:31.145Z,6.00
2023-09-08T15:45:59.733Z,8.00
2023-09-08T15:48:27.527Z,7.00
2023-09-08T15:50:55.471Z,6.00
2023-09-08T15:53:23.336Z,6.00
2023-09-08T15:55:51.480Z,6.00
2023-09-08T15:58:20.278Z,5.00
2023-09-08T16:00:48.198Z,7.80
2023-09-08T16:03:16.101Z,7.00
2023-09-08T16:05:45.107Z,7.00
2023-09-08T16:08:12.912Z,7.00
2023-09-08T16:10:40.788Z,6.20
2023-09-08T16:13:08.881Z,7.00
2023-09-08T16:15:36.812Z,6.80
2023-09-08T16:20:34.244Z,7.00
2023-09-08T16:23:02.113Z,7.40
2023-09-08T16:25:30.531Z,7.00
2023-09-08T16:27:58.340Z,4.60
2023-09-08T16:30:26.196Z,7.00
2023-09-08T16:32:54.141Z,6.00
2023-09-08T16:35:22.043Z,6.00
2023-09-08T16:37:49.817Z,6.20
2023-09-08T16:40:18.059Z,4.20
2023-09-08T16:42:46.178Z,6.80
2023-09-08T16:45:15.526Z,7.00
2023-09-08T16:47:44.207Z,6.40
2023-09-08T16:50:12.024Z,6.40
2023-09-08T16:52:39.916Z,7.20
2023-09-08T16:55:12.765Z,5.20
2023-09-08T16:57:40.894Z,5.00
2023-09-08T17:00:10.500Z,6.20
2023-09-08T17:02:38.716Z,6.00
2023-09-08T17:05:06.688Z,6.80
2023-09-08T17:07:35.312Z,5.00
2023-09-08T17:10:04.928Z,6.00
2023-09-08T17:12:33.043Z,5.00
2023-09-08T17:15:01.006Z,6.00
2023-09-08T17:17:28.910Z,4.40
2023-09-08T17:19:57.727Z,4.40
2023-09-08T17:22:25.876Z,6.00
2023-09-08T17:24:54.763Z,7.40
2023-09-08T17:27:22.603Z,5.60
2023-09-08T17:29:50.266Z,6.20
2023-09-08T17:32:18.462Z,6.80
2023-09-08T17:34:47.716Z,5.80
2023-09-08T17:37:17.760Z,5.00
2023-09-08T17:39:45.853Z,6.60
2023-09-08T17:42:13.723Z,7.00
2023-09-08T17:44:43.025Z,7.00
2023-09-08T17:47:13.771Z,8.00
2023-09-08T17:49:41.776Z,6.20
2023-09-08T17:52:09.677Z,9.00
2023-09-08T17:54:37.660Z,8.00
2023-09-08T17:57:05.582Z,8.20
2023-09-08T17:59:33.370Z,8.80
2023-09-08T18:02:01.809Z,8.00
2023-09-08T18:04:29.929Z,7.60
2023-09-08T18:06:58.284Z,4.80
2023-09-08T18:09:26.317Z,6.80
2023-09-08T18:11:54.271Z,7.00
2023-09-08T18:14:22.200Z,7.60
2023-09-08T18:16:51.290Z,7.40
2023-09-08T18:19:19.140Z,17.60
2023-09-08T18:21:46.968Z,9.20
2023-09-08T18:24:14.852Z,7.40
2023-09-08T18:26:43.145Z,8.00
2023-09-08T18:29:11.411Z,8.00
2023-09-08T18:31:39.352Z,4.60
2023-09-08T18:34:07.343Z,6.40
2023-09-08T18:36:35.075Z,8.20
2023-09-08T18:39:03.008Z,5.80
2023-09-08T18:41:30.886Z,5.00
2023-09-08T18:43:58.732Z,8.40
2023-09-08T18:46:26.725Z,6.40
2023-09-08T18:48:54.608Z,7.00
2023-09-08T18:51:23.061Z,7.80
2023-09-08T18:53:50.975Z,9.00
2023-09-08T18:56:19.416Z,9.00
2023-09-08T18:58:47.502Z,7.40
2023-09-08T19:01:15.365Z,6.60
2023-09-08T19:03:43.227Z,6.20
2023-09-08T19:06:11.406Z,7.20
2023-09-08T19:08:40.391Z,7.20
2023-09-08T19:11:08.221Z,9.20
2023-09-08T19:13:36.644Z,8.00
2023-09-08T19:16:04.932Z,9.80
2023-09-08T19:18:32.817Z,7.00
2023-09-08T19:21:00.763Z,13.80
2023-09-08T19:23:29.256Z,13.00
2023-09-08T19:25:56.983Z,17.60
2023-09-08T19:28:24.929Z,19.00
2023-09-08T19:30:53.076Z,19.40
2023-09-08T19:33:21.102Z,15.60
2023-09-08T19:35:49.307Z,10.80
2023-09-08T19:38:18.926Z,12.40
2023-09-08T19:40:46.808Z,22.40
2023-09-08T19:43:14.608Z,13.80
2023-09-08T19:45:42.603Z,12.60
2023-09-08T19:48:10.697Z,25.60
2023-09-08T19:50:38.779Z,28.20
2023-09-08T19:53:06.959Z,41.00
2023-09-08T19:55:35.276Z,34.25
2023-09-08T19:58:03.628Z,18.00
2023-09-08T20:00:31.540Z,10.80
2023-09-08T20:02:59.447Z,12.60
2023-09-08T20:05:28.295Z,9.40
2023-09-08T20:07:56.291Z,10.20
2023-09-08T20:10:24.191Z,9.20
2023-09-08T20:12:51.991Z,8.40
2023-09-08T20:15:19.869Z,11.00
2023-09-08T20:17:48.662Z,11.20
2023-09-08T20:20:16.700Z,12.00
2023-09-08T20:22:44.620Z,12.00
2023-09-08T20:25:15.016Z,9.00
2023-09-08T20:27:42.902Z,9.40
2023-09-08T20:30:10.820Z,9.80
2023-09-08T20:32:38.804Z,11.80
2023-09-08T20:35:06.638Z,12.00
2023-09-08T20:37:34.630Z,13.20
2023-09-08T20:40:02.350Z,11.00
2023-09-08T20:42:30.520Z,11.40
2023-09-08T20:44:58.480Z,11.00
2023-09-08T20:47:26.298Z,10.60
2023-09-08T20:49:54.107Z,11.00
2023-09-08T20:52:22.029Z,11.00
2023-09-08T20:54:50.396Z,11.00
2023-09-08T20:57:20.008Z,11.20
2023-09-08T20:59:47.753Z,9.60
2023-09-08T21:02:16.826Z,10.80
2023-09-08T21:04:45.351Z,13.20
2023-09-08T21:07:13.312Z,11.80
2023-09-08T21:09:41.108Z,8.80
2023-09-08T21:12:08.903Z,11.00
2023-09-08T21:14:36.781Z,11.00
2023-09-08T21:17:05.633Z,9.20
2023-09-08T21:19:34.040Z,11.20
2023-09-08T21:22:02.006Z,11.60
2023-09-08T21:24:29.747Z,11.80
2023-09-08T21:27:00.621Z,11.00
2023-09-08T21:29:28.748Z,4.20
2023-09-08T21:31:57.719Z,11.60
2023-09-08T21:34:26.179Z,13.80
2023-09-08T21:36:54.235Z,6.60
2023-09-08T21:39:21.937Z,10.60
2023-09-08T21:41:49.923Z,14.00
2023-09-08T21:44:17.766Z,12.20
2023-09-08T21:46:45.518Z,11.20
2023-09-08T21:49:13.389Z,10.20
2023-09-08T21:51:41.194Z,13.20
2023-09-08T21:54:09.126Z,9.20
2023-09-08T21:56:37.312Z,10.20
2023-09-08T21:59:05.080Z,11.00
2023-09-08T22:01:32.907Z,7.80
2023-09-08T22:04:01.034Z,19.00
2023-09-08T22:06:28.885Z,20.00
2023-09-08T22:08:57.109Z,17.00
2023-09-08T22:11:25.312Z,19.20
2023-09-08T22:13:53.176Z,19.00
2023-09-08T22:16:21.164Z,21.40
2023-09-08T22:18:49.632Z,21.75
2023-09-08T22:21:17.567Z,25.25
2023-09-08T22:23:45.240Z,28.25
2023-09-08T22:26:12.858Z,25.75
2023-09-08T22:28:41.293Z,28.00
2023-09-08T22:31:09.060Z,24.60
2023-09-08T22:33:37.556Z,20.80
2023-09-08T22:36:05.855Z,22.75
2023-09-08T22:38:34.172Z,18.20
2023-09-08T22:41:02.700Z,20.40
2023-09-08T22:43:30.395Z,19.20
2023-09-08T22:45:58.171Z,21.80
2023-09-08T22:48:25.966Z,17.40
2023-09-08T22:50:53.698Z,16.80
2023-09-08T22:53:21.434Z,19.00
2023-09-08T22:55:49.537Z,14.80
2023-09-08T22:58:17.475Z,15.80
2023-09-08T23:00:45.225Z,16.20
2023-09-08T23:03:12.970Z,15.60
2023-09-08T23:05:40.759Z,16.00
2023-09-08T23:08:08.450Z,16.00
2023-09-08T23:10:36.237Z,14.00
2023-09-08T23:13:04.129Z,16.40
2023-09-08T23:15:33.446Z,16.00
2023-09-08T23:18:01.150Z,16.80
2023-09-08T23:20:28.827Z,14.40
2023-09-08T23:22:56.985Z,14.80
2023-09-08T23:25:24.661Z,15.40
2023-09-08T23:27:52.328Z,14.80
2023-09-08T23:30:19.982Z,15.40
2023-09-08T23:32:47.718Z,14.40
2023-09-08T23:35:15.676Z,13.20
2023-09-08T23:37:43.596Z,14.80
2023-09-08T23:40:12.991Z,15.60
2023-09-08T23:42:40.801Z,12.40
2023-09-08T23:45:08.471Z,10.60
2023-09-08T23:47:36.268Z,14.00
2023-09-08T23:50:04.571Z,13.60
2023-09-08T23:52:32.212Z,12.80
2023-09-08T23:54:59.822Z,14.40
2023-09-08T23:57:27.583Z,12.80
2023-09-08T23:59:55.288Z,16.00
